sensor_id;sensor_type;location;lat;lon;timestamp;pressure;altitude;pressure_sealevel;temperature;humidity
30682;BME280;17439;48.092;11.842;2023-04-07T00:00:26;95443.06;;;3.78;50.19
30682;BME280;17439;48.092;11.842;2023-04-07T00:02:54;95443.59;;;3.75;50.22
30682;BME280;17439;48.092;11.842;2023-04-07T00:05:21;95439.84;;;3.71;50.20
30682;BME280;17439;48.092;11.842;2023-04-07T00:07:48;95443.59;;;3.70;50.24
30682;BME280;17439;48.092;11.842;2023-04-07T00:10:23;95442.50;;;3.66;50.31
30682;BME280;17439;48.092;11.842;2023-04-07T00:12:51;95438.50;;;3.63;50.42
30682;BME280;17439;48.092;11.842;2023-04-07T00:15:17;95439.84;;;3.60;50.43
30682;BME280;17439;48.092;11.842;2023-04-07T00:17:44;95435.78;;;3.58;50.61
30682;BME280;17439;48.092;11.842;2023-04-07T00:20:11;95437.94;;;3.56;50.42
30682;BME280;17439;48.092;11.842;2023-04-07T00:22:38;95431.78;;;3.55;50.44
30682;BME280;17439;48.092;11.842;2023-04-07T00:25:05;95431.25;;;3.53;50.61
30682;BME280;17439;48.092;11.842;2023-04-07T00:27:31;95435.53;;;3.49;50.57
30682;BME280;17439;48.092;11.842;2023-04-07T00:29:58;95431.22;;;3.48;50.61
30682;BME280;17439;48.092;11.842;2023-04-07T00:32:25;95431.22;;;3.48;50.71
30682;BME280;17439;48.092;11.842;2023-04-07T00:34:51;95431.50;;;3.47;50.84
30682;BME280;17439;48.092;11.842;2023-04-07T00:37:18;95426.41;;;3.45;50.94
30682;BME280;17439;48.092;11.842;2023-04-07T00:39:45;95424.81;;;3.44;50.88
30682;BME280;17439;48.092;11.842;2023-04-07T00:42:12;95421.31;;;3.43;50.84
30682;BME280;17439;48.092;11.842;2023-04-07T00:44:39;95423.97;;;3.43;50.97
30682;BME280;17439;48.092;11.842;2023-04-07T00:47:05;95418.88;;;3.42;50.99
30682;BME280;17439;48.092;11.842;2023-04-07T00:49:32;95410.84;;;3.42;50.91
30682;BME280;17439;48.092;11.842;2023-04-07T00:51:59;95415.16;;;3.43;50.91
30682;BME280;17439;48.092;11.842;2023-04-07T00:54:26;95418.88;;;3.42;50.96
30682;BME280;17439;48.092;11.842;2023-04-07T00:56:53;95417.84;;;3.43;51.24
30682;BME280;17439;48.092;11.842;2023-04-07T00:59:20;95409.25;;;3.41;51.08
30682;BME280;17439;48.092;11.842;2023-04-07T01:04:55;95418.09;;;3.41;52.22
30682;BME280;17439;48.092;11.842;2023-04-07T01:07:33;95405.75;;;3.40;52.04
30682;BME280;17439;48.092;11.842;2023-04-07T01:10:11;95404.69;;;3.41;51.69
30682;BME280;17439;48.092;11.842;2023-04-07T01:12:56;95400.94;;;3.42;51.95
30682;BME280;17439;48.092;11.842;2023-04-07T01:15:26;95398.00;;;3.44;51.51
30682;BME280;17439;48.092;11.842;2023-04-07T01:18:00;95395.84;;;3.46;51.65
30682;BME280;17439;48.092;11.842;2023-04-07T01:20:32;95395.59;;;3.48;51.36
30682;BME280;17439;48.092;11.842;2023-04-07T01:23:03;95394.53;;;3.49;51.75
30682;BME280;17439;48.092;11.842;2023-04-07T01:26:01;95396.94;;;3.50;51.59
30682;BME280;17439;48.092;11.842;2023-04-07T01:31:21;95394.25;;;3.50;51.41
30682;BME280;17439;48.092;11.842;2023-04-07T01:33:49;95384.06;;;3.52;51.31
30682;BME280;17439;48.092;11.842;2023-04-07T01:36:17;95401.78;;;3.53;51.49
30682;BME280;17439;48.092;11.842;2023-04-07T01:38:44;95391.06;;;3.53;51.33
30682;BME280;17439;48.092;11.842;2023-04-07T01:41:13;95392.63;;;3.54;51.70
30682;BME280;17439;48.092;11.842;2023-04-07T01:43:41;95399.63;;;3.55;51.51
30682;BME280;17439;48.092;11.842;2023-04-07T01:46:11;95393.19;;;3.56;51.43
30682;BME280;17439;48.092;11.842;2023-04-07T01:48:38;95386.75;;;3.57;51.54
30682;BME280;17439;48.092;11.842;2023-04-07T01:51:06;95392.91;;;3.58;51.61
30682;BME280;17439;48.092;11.842;2023-04-07T01:53:33;95391.06;;;3.53;51.40
30682;BME280;17439;48.092;11.842;2023-04-07T01:56:00;95386.75;;;3.57;51.30
30682;BME280;17439;48.092;11.842;2023-04-07T01:58:28;95389.16;;;3.59;51.05
30682;BME280;17439;48.092;11.842;2023-04-07T02:00:55;95395.06;;;3.61;51.18
30682;BME280;17439;48.092;11.842;2023-04-07T02:03:28;95400.97;;;3.63;52.23
30682;BME280;17439;48.092;11.842;2023-04-07T02:05:58;95398.56;;;3.61;51.84
30682;BME280;17439;48.092;11.842;2023-04-07T02:08:29;95394.53;;;3.59;52.05
30682;BME280;17439;48.092;11.842;2023-04-07T02:11:00;95395.06;;;3.56;52.51
30682;BME280;17439;48.092;11.842;2023-04-07T02:13:31;95392.91;;;3.53;52.51
30682;BME280;17439;48.092;11.842;2023-04-07T02:16:00;95394.00;;;3.52;52.40
30682;BME280;17439;48.092;11.842;2023-04-07T02:18:29;95389.97;;;3.49;52.57
30682;BME280;17439;48.092;11.842;2023-04-07T02:20:58;95391.03;;;3.48;52.30
30682;BME280;17439;48.092;11.842;2023-04-07T02:23:26;95387.53;;;3.48;52.27
30682;BME280;17439;48.092;11.842;2023-04-07T02:25:56;95391.56;;;3.45;52.51
30682;BME280;17439;48.092;11.842;2023-04-07T02:28:23;95383.50;;;3.45;52.22
30682;BME280;17439;48.092;11.842;2023-04-07T02:30:49;95386.47;;;3.43;52.12
30682;BME280;17439;48.092;11.842;2023-04-07T02:33:16;95384.88;;;3.42;52.41
30682;BME280;17439;48.092;11.842;2023-04-07T02:35:42;95383.25;;;3.41;52.45
30682;BME280;17439;48.092;11.842;2023-04-07T02:38:09;95380.84;;;3.40;52.47
30682;BME280;17439;48.092;11.842;2023-04-07T02:40:36;95384.59;;;3.39;52.39
30682;BME280;17439;48.092;11.842;2023-04-07T02:43:02;95383.78;;;3.38;52.45
30682;BME280;17439;48.092;11.842;2023-04-07T02:45:29;95370.66;;;3.37;52.51
30682;BME280;17439;48.092;11.842;2023-04-07T02:47:56;95375.22;;;3.36;52.56
30682;BME280;17439;48.092;11.842;2023-04-07T02:50:23;95376.00;;;3.37;52.59
30682;BME280;17439;48.092;11.842;2023-04-07T02:52:49;95372.53;;;3.36;52.50
30682;BME280;17439;48.092;11.842;2023-04-07T02:55:16;95369.06;;;3.36;52.65
30682;BME280;17439;48.092;11.842;2023-04-07T02:57:43;95369.84;;;3.36;52.59
30682;BME280;17439;48.092;11.842;2023-04-07T03:00:30;95367.19;;;3.36;52.43
30682;BME280;17439;48.092;11.842;2023-04-07T03:03:05;95370.66;;;3.37;52.32
30682;BME280;17439;48.092;11.842;2023-04-07T03:05:35;95366.91;;;3.38;52.75
30682;BME280;17439;48.092;11.842;2023-04-07T03:08:03;95372.28;;;3.38;52.67
30682;BME280;17439;48.092;11.842;2023-04-07T03:10:30;95370.13;;;3.40;52.58
30682;BME280;17439;48.092;11.842;2023-04-07T03:12:57;95363.69;;;3.41;52.46
30682;BME280;17439;48.092;11.842;2023-04-07T03:15:24;95360.75;;;3.42;52.49
30682;BME280;17439;48.092;11.842;2023-04-07T03:17:51;95365.84;;;3.44;52.48
30682;BME280;17439;48.092;11.842;2023-04-07T03:20:18;95353.25;;;3.44;52.79
30682;BME280;17439;48.092;11.842;2023-04-07T03:22:45;95356.19;;;3.48;52.59
30682;BME280;17439;48.092;11.842;2023-04-07T03:25:19;95358.31;;;3.51;52.53
30682;BME280;17439;48.092;11.842;2023-04-07T03:27:47;95348.41;;;3.47;52.31
30682;BME280;17439;48.092;11.842;2023-04-07T03:30:14;95356.72;;;3.55;52.72
30682;BME280;17439;48.092;11.842;2023-04-07T03:32:42;95350.84;;;3.58;52.79
30682;BME280;17439;48.092;11.842;2023-04-07T03:35:09;95344.94;;;3.61;52.63
30682;BME280;17439;48.092;11.842;2023-04-07T03:37:36;95356.72;;;3.66;52.78
30682;BME280;17439;48.092;11.842;2023-04-07T03:40:07;95351.91;;;3.68;52.74
30682;BME280;17439;48.092;11.842;2023-04-07T03:42:34;95349.75;;;3.70;52.95
30682;BME280;17439;48.092;11.842;2023-04-07T03:45:05;95346.53;;;3.73;53.11
30682;BME280;17439;48.092;11.842;2023-04-07T03:47:33;95346.78;;;3.76;52.99
30682;BME280;17439;48.092;11.842;2023-04-07T03:50:03;95343.31;;;3.81;52.96
30682;BME280;17439;48.092;11.842;2023-04-07T03:52:34;95345.44;;;3.84;53.18
30682;BME280;17439;48.092;11.842;2023-04-07T03:55:10;95345.97;;;3.86;53.36
30682;BME280;17439;48.092;11.842;2023-04-07T03:57:39;95350.53;;;3.91;53.21
30682;BME280;17439;48.092;11.842;2023-04-07T04:00:06;95350.78;;;3.94;53.70
30682;BME280;17439;48.092;11.842;2023-04-07T04:02:41;95340.34;;;3.98;53.77
30682;BME280;17439;48.092;11.842;2023-04-07T04:05:12;95343.78;;;4.04;54.31
30682;BME280;17439;48.092;11.842;2023-04-07T04:07:39;95344.59;;;4.09;55.48
30682;BME280;17439;48.092;11.842;2023-04-07T04:10:07;95349.69;;;4.16;56.80
30682;BME280;17439;48.092;11.842;2023-04-07T04:12:39;95335.16;;;4.22;58.92
30682;BME280;17439;48.092;11.842;2023-04-07T04:15:09;95339.19;;;4.30;59.48
30682;BME280;17439;48.092;11.842;2023-04-07T04:17:36;95337.78;;;4.43;59.21
30682;BME280;17439;48.092;11.842;2023-04-07T04:20:05;95341.50;;;4.57;59.03
30682;BME280;17439;48.092;11.842;2023-04-07T04:22:41;95345.75;;;4.68;58.90
30682;BME280;17439;48.092;11.842;2023-04-07T04:25:08;95341.91;;;4.80;59.00
30682;BME280;17439;48.092;11.842;2023-04-07T04:27:35;95343.75;;;4.89;59.17
30682;BME280;17439;48.092;11.842;2023-04-07T04:30:13;95333.75;;;5.00;59.04
30682;BME280;17439;48.092;11.842;2023-04-07T04:32:47;95337.19;;;5.11;58.98
30682;BME280;17439;48.092;11.842;2023-04-07T04:35:18;95333.09;;;5.19;59.04
30682;BME280;17439;48.092;11.842;2023-04-07T04:37:59;95335.19;;;5.27;58.94
30682;BME280;17439;48.092;11.842;2023-04-07T04:40:26;95336.50;;;5.35;58.79
30682;BME280;17439;48.092;11.842;2023-04-07T04:42:53;95337.25;;;5.40;59.05
30682;BME280;17439;48.092;11.842;2023-04-07T04:45:21;95341.22;;;5.48;58.73
30682;BME280;17439;48.092;11.842;2023-04-07T04:47:48;95342.78;;;5.54;58.62
30682;BME280;17439;48.092;11.842;2023-04-07T04:50:15;95341.94;;;5.59;58.82
30682;BME280;17439;48.092;11.842;2023-04-07T04:52:44;95328.16;;;5.66;58.77
30682;BME280;17439;48.092;11.842;2023-04-07T04:55:18;95334.84;;;5.73;58.62
30682;BME280;17439;48.092;11.842;2023-04-07T04:57:45;95331.00;;;5.79;58.66
30682;BME280;17439;48.092;11.842;2023-04-07T05:00:17;95336.84;;;5.87;58.71
30682;BME280;17439;48.092;11.842;2023-04-07T05:02:46;95331.16;;;5.93;58.77
30682;BME280;17439;48.092;11.842;2023-04-07T05:05:14;95327.06;;;6.01;58.57
30682;BME280;17439;48.092;11.842;2023-04-07T05:07:42;95334.81;;;6.08;58.40
30682;BME280;17439;48.092;11.842;2023-04-07T05:10:11;95324.78;;;6.13;58.86
30682;BME280;17439;48.092;11.842;2023-04-07T05:12:44;95326.06;;;6.21;58.51
30682;BME280;17439;48.092;11.842;2023-04-07T05:15:11;95326.53;;;6.28;58.50
30682;BME280;17439;48.092;11.842;2023-04-07T05:17:38;95318.41;;;6.33;58.28
30682;BME280;17439;48.092;11.842;2023-04-07T05:20:09;95324.50;;;6.39;58.39
30682;BME280;17439;48.092;11.842;2023-04-07T05:22:39;95313.16;;;6.42;58.24
30682;BME280;17439;48.092;11.842;2023-04-07T05:25:09;95320.38;;;6.47;58.13
30682;BME280;17439;48.092;11.842;2023-04-07T05:27:37;95320.16;;;6.43;58.67
30682;BME280;17439;48.092;11.842;2023-04-07T05:30:09;95321.94;;;6.53;57.97
30682;BME280;17439;48.092;11.842;2023-04-07T05:32:36;95319.44;;;6.57;57.87
30682;BME280;17439;48.092;11.842;2023-04-07T05:35:10;95321.56;;;6.60;57.87
30682;BME280;17439;48.092;11.842;2023-04-07T05:37:45;95318.31;;;6.63;58.05
30682;BME280;17439;48.092;11.842;2023-04-07T05:40:12;95324.44;;;6.68;57.97
30682;BME280;17439;48.092;11.842;2023-04-07T05:42:39;95317.94;;;6.69;57.84
30682;BME280;17439;48.092;11.842;2023-04-07T05:45:07;95313.88;;;6.72;58.18
30682;BME280;17439;48.092;11.842;2023-04-07T05:47:37;95321.38;;;6.75;58.18
30682;BME280;17439;48.092;11.842;2023-04-07T05:50:04;95312.72;;;6.78;58.24
30682;BME280;17439;48.092;11.842;2023-04-07T05:52:35;95315.63;;;6.82;58.13
30682;BME280;17439;48.092;11.842;2023-04-07T05:55:13;95312.44;;;6.80;57.65
30682;BME280;17439;48.092;11.842;2023-04-07T05:57:40;95312.56;;;6.88;57.84
30682;BME280;17439;48.092;11.842;2023-04-07T06:00:08;95322.19;;;6.95;57.83
30682;BME280;17439;48.092;11.842;2023-04-07T06:02:39;95306.25;;;6.98;57.91
30682;BME280;17439;48.092;11.842;2023-04-07T06:05:12;95302.66;;;7.03;57.97
30682;BME280;17439;48.092;11.842;2023-04-07T06:07:39;95308.31;;;7.06;58.01
30682;BME280;17439;48.092;11.842;2023-04-07T06:10:07;95311.22;;;7.10;58.22
30682;BME280;17439;48.092;11.842;2023-04-07T06:12:34;95301.44;;;7.14;58.09
30682;BME280;17439;48.092;11.842;2023-04-07T06:15:00;95311.63;;;7.17;58.28
30682;BME280;17439;48.092;11.842;2023-04-07T06:17:27;95309.19;;;7.21;58.22
30682;BME280;17439;48.092;11.842;2023-04-07T06:19:54;95297.50;;;7.25;58.13
30682;BME280;17439;48.092;11.842;2023-04-07T06:22:20;95300.41;;;7.29;58.21
30682;BME280;17439;48.092;11.842;2023-04-07T06:24:47;95302.25;;;7.34;58.24
30682;BME280;17439;48.092;11.842;2023-04-07T06:27:14;95305.13;;;7.37;58.43
30682;BME280;17439;48.092;11.842;2023-04-07T06:29:40;95303.19;;;7.43;58.37
30682;BME280;17439;48.092;11.842;2023-04-07T06:32:08;95303.09;;;7.48;58.72
30682;BME280;17439;48.092;11.842;2023-04-07T06:34:35;95305.69;;;7.53;58.76
30682;BME280;17439;48.092;11.842;2023-04-07T06:37:01;95299.13;;;7.59;58.65
30682;BME280;17439;48.092;11.842;2023-04-07T06:39:29;95305.22;;;7.65;58.82
30682;BME280;17439;48.092;11.842;2023-04-07T06:41:55;95300.25;;;7.72;58.92
30682;BME280;17439;48.092;11.842;2023-04-07T06:44:22;95296.69;;;7.77;59.15
30682;BME280;17439;48.092;11.842;2023-04-07T06:46:49;95306.28;;;7.83;58.99
30682;BME280;17439;48.092;11.842;2023-04-07T06:49:15;95299.19;;;7.87;58.85
30682;BME280;17439;48.092;11.842;2023-04-07T06:51:42;95298.53;;;7.95;58.82
30682;BME280;17439;48.092;11.842;2023-04-07T06:54:09;95291.13;;;8.01;58.80
30682;BME280;17439;48.092;11.842;2023-04-07T06:56:35;95293.41;;;8.08;58.73
30682;BME280;17439;48.092;11.842;2023-04-07T06:59:02;95286.81;;;8.14;58.70
30682;BME280;17439;48.092;11.842;2023-04-07T07:01:28;95281.31;;;8.19;58.58
30682;BME280;17439;48.092;11.842;2023-04-07T07:03:55;95284.44;;;8.26;58.76
30682;BME280;17439;48.092;11.842;2023-04-07T07:06:22;95289.94;;;8.35;58.70
30682;BME280;17439;48.092;11.842;2023-04-07T07:08:49;95284.66;;;8.44;58.74
30682;BME280;17439;48.092;11.842;2023-04-07T07:11:15;95290.16;;;8.52;58.60
30682;BME280;17439;48.092;11.842;2023-04-07T07:13:42;95285.94;;;8.60;58.38
30682;BME280;17439;48.092;11.842;2023-04-07T07:16:08;95284.44;;;8.68;58.41
30682;BME280;17439;48.092;11.842;2023-04-07T07:18:35;95279.94;;;8.77;58.45
30682;BME280;17439;48.092;11.842;2023-04-07T07:21:02;95274.28;;;8.87;58.45
30682;BME280;17439;48.092;11.842;2023-04-07T07:23:28;95271.19;;;8.94;58.44
30682;BME280;17439;48.092;11.842;2023-04-07T07:25:55;95269.84;;;9.05;58.34
30682;BME280;17439;48.092;11.842;2023-04-07T07:28:22;95272.31;;;9.16;58.30
30682;BME280;17439;48.092;11.842;2023-04-07T07:30:49;95269.69;;;9.24;58.04
30682;BME280;17439;48.092;11.842;2023-04-07T07:33:15;95281.06;;;9.35;58.09
30682;BME280;17439;48.092;11.842;2023-04-07T07:35:42;95281.91;;;9.44;57.91
30682;BME280;17439;48.092;11.842;2023-04-07T07:38:08;95274.19;;;9.52;57.47
30682;BME280;17439;48.092;11.842;2023-04-07T07:40:35;95272.34;;;9.61;57.33
30682;BME280;17439;48.092;11.842;2023-04-07T07:43:02;95275.09;;;9.70;57.16
30682;BME280;17439;48.092;11.842;2023-04-07T07:45:28;95277.03;;;9.78;57.14
30682;BME280;17439;48.092;11.842;2023-04-07T07:47:55;95277.91;;;9.87;57.17
30682;BME280;17439;48.092;11.842;2023-04-07T07:50:22;95276.03;;;9.96;56.83
30682;BME280;17439;48.092;11.842;2023-04-07T07:52:48;95276.69;;;10.02;56.52
30682;BME280;17439;48.092;11.842;2023-04-07T07:55:15;95279.47;;;10.11;56.71
30682;BME280;17439;48.092;11.842;2023-04-07T07:57:42;95281.41;;;10.19;56.52
30682;BME280;17439;48.092;11.842;2023-04-07T08:00:09;95279.84;;;10.27;56.22
30682;BME280;17439;48.092;11.842;2023-04-07T08:02:38;95280.53;;;10.32;56.25
30682;BME280;17439;48.092;11.842;2023-04-07T08:05:06;95277.06;;;10.41;56.25
30682;BME280;17439;48.092;11.842;2023-04-07T08:07:33;95285.84;;;10.46;56.16
30682;BME280;17439;48.092;11.842;2023-04-07T08:09:59;95276.44;;;10.52;55.78
30682;BME280;17439;48.092;11.842;2023-04-07T08:12:26;95284.44;;;10.58;55.63
30682;BME280;17439;48.092;11.842;2023-04-07T08:14:52;95277.75;;;10.64;55.49
30682;BME280;17439;48.092;11.842;2023-04-07T08:17:19;95281.44;;;10.68;55.73
30682;BME280;17439;48.092;11.842;2023-04-07T08:19:46;95280.81;;;10.71;55.33
30682;BME280;17439;48.092;11.842;2023-04-07T08:22:12;95284.16;;;10.77;55.43
30682;BME280;17439;48.092;11.842;2023-04-07T08:24:39;95278.09;;;10.80;55.26
30682;BME280;17439;48.092;11.842;2023-04-07T08:27:06;95280.69;;;10.85;55.00
30682;BME280;17439;48.092;11.842;2023-04-07T08:29:32;95280.84;;;10.88;54.83
30682;BME280;17439;48.092;11.842;2023-04-07T08:31:59;95279.41;;;10.91;54.77
30682;BME280;17439;48.092;11.842;2023-04-07T08:34:26;95280.38;;;10.95;54.84
30682;BME280;17439;48.092;11.842;2023-04-07T08:36:52;95276.72;;;11.00;54.89
30682;BME280;17439;48.092;11.842;2023-04-07T08:39:19;95276.56;;;11.05;54.95
30682;BME280;17439;48.092;11.842;2023-04-07T08:41:45;95275.75;;;11.13;54.93
30682;BME280;17439;48.092;11.842;2023-04-07T08:44:13;95270.66;;;11.20;54.62
30682;BME280;17439;48.092;11.842;2023-04-07T08:46:40;95270.19;;;11.27;54.58
30682;BME280;17439;48.092;11.842;2023-04-07T08:49:10;95267.78;;;11.25;53.94
30682;BME280;17439;48.092;11.842;2023-04-07T08:51:37;95272.44;;;11.42;54.85
30682;BME280;17439;48.092;11.842;2023-04-07T08:54:12;95264.25;;;11.51;53.84
30682;BME280;17439;48.092;11.842;2023-04-07T08:56:40;95269.53;;;11.65;53.99
30682;BME280;17439;48.092;11.842;2023-04-07T08:59:09;95268.38;;;11.75;53.69
30682;BME280;17439;48.092;11.842;2023-04-07T09:01:37;95270.78;;;11.85;53.94
30682;BME280;17439;48.092;11.842;2023-04-07T09:04:05;95262.28;;;11.95;54.05
30682;BME280;17439;48.092;11.842;2023-04-07T09:06:33;95267.03;;;12.07;53.59
30682;BME280;17439;48.092;11.842;2023-04-07T09:09:00;95263.34;;;12.21;52.85
30682;BME280;17439;48.092;11.842;2023-04-07T09:11:28;95261.38;;;12.30;52.61
30682;BME280;17439;48.092;11.842;2023-04-07T09:13:55;95260.22;;;12.40;53.03
30682;BME280;17439;48.092;11.842;2023-04-07T09:16:22;95248.19;;;12.49;52.75
30682;BME280;17439;48.092;11.842;2023-04-07T09:18:49;95253.56;;;12.58;52.20
30682;BME280;17439;48.092;11.842;2023-04-07T09:21:15;95258.19;;;12.66;51.71
30682;BME280;17439;48.092;11.842;2023-04-07T09:23:42;95257.84;;;12.68;51.06
30682;BME280;17439;48.092;11.842;2023-04-07T09:26:25;95254.47;;;12.71;48.80
30682;BME280;17439;48.092;11.842;2023-04-07T09:31:19;95247.69;;;12.77;50.64
30682;BME280;17439;48.092;11.842;2023-04-07T09:33:48;95247.19;;;12.84;50.07
30682;BME280;17439;48.092;11.842;2023-04-07T09:36:15;95247.31;;;12.87;50.34
30682;BME280;17439;48.092;11.842;2023-04-07T09:38:42;95246.53;;;12.87;49.65
30682;BME280;17439;48.092;11.842;2023-04-07T09:41:12;95243.19;;;12.81;48.28
30682;BME280;17439;48.092;11.842;2023-04-07T09:43:43;95235.66;;;12.87;47.95
30682;BME280;17439;48.092;11.842;2023-04-07T09:46:18;95242.34;;;12.89;47.40
30682;BME280;17439;48.092;11.842;2023-04-07T09:48:45;95236.38;;;12.96;49.95
30682;BME280;17439;48.092;11.842;2023-04-07T09:51:14;95237.75;;;13.02;48.99
30682;BME280;17439;48.092;11.842;2023-04-07T09:53:48;95234.66;;;13.13;48.51
30682;BME280;17439;48.092;11.842;2023-04-07T09:56:17;95224.84;;;13.20;49.28
30682;BME280;17439;48.092;11.842;2023-04-07T09:58:45;95228.59;;;13.28;49.19
30682;BME280;17439;48.092;11.842;2023-04-07T10:01:14;95225.22;;;13.31;48.11
30682;BME280;17439;48.092;11.842;2023-04-07T10:03:41;95222.34;;;13.36;48.43
30682;BME280;17439;48.092;11.842;2023-04-07T10:06:08;95218.94;;;13.39;47.95
30682;BME280;17439;48.092;11.842;2023-04-07T10:08:36;95217.13;;;13.43;47.50
30682;BME280;17439;48.092;11.842;2023-04-07T10:11:04;95216.00;;;13.45;46.64
30682;BME280;17439;48.092;11.842;2023-04-07T10:13:33;95215.19;;;13.44;45.94
30682;BME280;17439;48.092;11.842;2023-04-07T10:16:03;95219.19;;;13.47;45.60
30682;BME280;17439;48.092;11.842;2023-04-07T10:18:34;95211.81;;;13.47;45.58
30682;BME280;17439;48.092;11.842;2023-04-07T10:21:06;95214.41;;;13.43;44.58
30682;BME280;17439;48.092;11.842;2023-04-07T10:24:04;95219.94;;;13.35;44.06
30682;BME280;17439;48.092;11.842;2023-04-07T10:26:37;95219.75;;;13.31;46.48
30682;BME280;17439;48.092;11.842;2023-04-07T10:29:09;95217.69;;;13.28;45.71
30682;BME280;17439;48.092;11.842;2023-04-07T10:31:37;95220.91;;;13.30;47.39
30682;BME280;17439;48.092;11.842;2023-04-07T10:34:05;95214.00;;;13.33;47.39
30682;BME280;17439;48.092;11.842;2023-04-07T10:36:31;95215.75;;;13.37;47.75
30682;BME280;17439;48.092;11.842;2023-04-07T10:41:38;95215.78;;;13.50;44.78
30682;BME280;17439;48.092;11.842;2023-04-07T10:44:06;95212.78;;;13.64;47.77
30682;BME280;17439;48.092;11.842;2023-04-07T10:49:12;95213.50;;;13.85;47.18
30682;BME280;17439;48.092;11.842;2023-04-07T10:51:41;95217.88;;;13.99;47.68
30682;BME280;17439;48.092;11.842;2023-04-07T10:54:14;95210.50;;;14.11;45.42
30682;BME280;17439;48.092;11.842;2023-04-07T10:57:07;95204.59;;;14.22;43.55
30682;BME280;17439;48.092;11.842;2023-04-07T10:59:34;95201.63;;;14.39;46.66
30682;BME280;17439;48.092;11.842;2023-04-07T11:02:29;95204.25;;;14.48;42.68
30682;BME280;17439;48.092;11.842;2023-04-07T11:04:56;95198.69;;;14.69;46.47
30682;BME280;17439;48.092;11.842;2023-04-07T11:07:43;95191.28;;;14.82;45.79
30682;BME280;17439;48.092;11.842;2023-04-07T11:10:11;95189.00;;;15.24;38.67
30682;BME280;17439;48.092;11.842;2023-04-07T11:12:37;95192.28;;;15.30;40.27
30682;BME280;17439;48.092;11.842;2023-04-07T11:15:18;95185.53;;;15.40;39.56
30682;BME280;17439;48.092;11.842;2023-04-07T11:17:44;95184.72;;;15.39;39.77
30682;BME280;17439;48.092;11.842;2023-04-07T11:20:11;95183.28;;;15.30;39.78
30682;BME280;17439;48.092;11.842;2023-04-07T11:22:38;95185.38;;;15.20;40.83
30682;BME280;17439;48.092;11.842;2023-04-07T11:25:19;95190.31;;;15.02;39.64
30682;BME280;17439;48.092;11.842;2023-04-07T11:27:46;95182.97;;;14.91;40.91
30682;BME280;17439;48.092;11.842;2023-04-07T11:30:14;95181.63;;;14.84;38.89
30682;BME280;17439;48.092;11.842;2023-04-07T11:32:41;95179.00;;;14.76;40.81
30682;BME280;17439;48.092;11.842;2023-04-07T11:35:08;95189.25;;;14.79;40.31
30682;BME280;17439;48.092;11.842;2023-04-07T11:37:35;95182.19;;;14.78;41.25
30682;BME280;17439;48.092;11.842;2023-04-07T11:40:01;95181.84;;;14.79;40.44
30682;BME280;17439;48.092;11.842;2023-04-07T11:42:36;95179.00;;;14.88;39.63
30682;BME280;17439;48.092;11.842;2023-04-07T11:45:03;95176.25;;;14.88;41.02
30682;BME280;17439;48.092;11.842;2023-04-07T11:47:35;95179.66;;;14.97;41.23
30682;BME280;17439;48.092;11.842;2023-04-07T11:50:02;95178.06;;;14.96;41.34
30682;BME280;17439;48.092;11.842;2023-04-07T11:52:39;95177.34;;;15.12;39.01
30682;BME280;17439;48.092;11.842;2023-04-07T11:55:15;95169.06;;;15.08;37.84
30682;BME280;17439;48.092;11.842;2023-04-07T11:57:41;95170.84;;;15.16;39.44
30682;BME280;17439;48.092;11.842;2023-04-07T12:00:10;95164.34;;;15.21;40.11
30682;BME280;17439;48.092;11.842;2023-04-07T12:02:37;95160.78;;;15.20;38.61
30682;BME280;17439;48.092;11.842;2023-04-07T12:05:05;95162.66;;;15.16;39.17
30682;BME280;17439;48.092;11.842;2023-04-07T12:07:32;95158.88;;;15.21;38.18
30682;BME280;17439;48.092;11.842;2023-04-07T12:10:17;95163.53;;;15.20;37.50
30682;BME280;17439;48.092;11.842;2023-04-07T12:12:44;95159.22;;;15.19;39.50
30682;BME280;17439;48.092;11.842;2023-04-07T12:15:11;95161.63;;;15.21;39.07
30682;BME280;17439;48.092;11.842;2023-04-07T12:17:43;95159.22;;;15.19;38.46
30682;BME280;17439;48.092;11.842;2023-04-07T12:20:10;95149.00;;;15.16;39.50
30682;BME280;17439;48.092;11.842;2023-04-07T12:22:37;95160.00;;;15.20;39.51
30682;BME280;17439;48.092;11.842;2023-04-07T12:25:04;95153.50;;;15.24;39.11
30682;BME280;17439;48.092;11.842;2023-04-07T12:27:31;95162.50;;;15.25;38.76
30682;BME280;17439;48.092;11.842;2023-04-07T12:30:09;95157.84;;;15.26;38.95
30682;BME280;17439;48.092;11.842;2023-04-07T12:32:35;95161.78;;;15.28;39.26
30682;BME280;17439;48.092;11.842;2023-04-07T12:35:02;95165.53;;;15.36;39.39
30682;BME280;17439;48.092;11.842;2023-04-07T12:37:29;95158.22;;;15.40;40.34
30682;BME280;17439;48.092;11.842;2023-04-07T12:39:55;95163.19;;;15.50;40.70
30682;BME280;17439;48.092;11.842;2023-04-07T12:42:22;95155.72;;;15.63;41.33
30682;BME280;17439;48.092;11.842;2023-04-07T12:44:48;95150.53;;;15.74;40.53
30682;BME280;17439;48.092;11.842;2023-04-07T12:47:15;95154.44;;;15.89;40.58
30682;BME280;17439;48.092;11.842;2023-04-07T12:49:41;95153.75;;;16.08;39.19
30682;BME280;17439;48.092;11.842;2023-04-07T12:52:08;95141.81;;;16.16;38.43
30682;BME280;17439;48.092;11.842;2023-04-07T12:54:35;95143.31;;;16.29;38.36
30682;BME280;17439;48.092;11.842;2023-04-07T12:57:01;95150.53;;;16.38;37.53
30682;BME280;17439;48.092;11.842;2023-04-07T12:59:28;95147.19;;;16.44;36.14
30682;BME280;17439;48.092;11.842;2023-04-07T13:01:54;95156.09;;;16.41;36.24
30682;BME280;17439;48.092;11.842;2023-04-07T13:04:21;95154.53;;;16.40;36.18
30682;BME280;17439;48.092;11.842;2023-04-07T13:06:48;95154.59;;;16.44;35.87
30682;BME280;17439;48.092;11.842;2023-04-07T13:09:15;95155.59;;;16.36;35.99
30682;BME280;17439;48.092;11.842;2023-04-07T13:11:41;95159.81;;;16.33;35.66
30682;BME280;17439;48.092;11.842;2023-04-07T13:14:08;95160.00;;;16.24;36.48
30682;BME280;17439;48.092;11.842;2023-04-07T13:16:35;95153.09;;;16.14;37.08